sensor_id;sensor_type;location;lat;lon;timestamp;pressure;altitude;pressure_sealevel;temperature;humidity
75740;BME280;64357;51.344;6.550;2023-10-09T00:02:07;101580.91;;;14.73;100.00
75740;BME280;64357;51.344;6.550;2023-10-09T00:04:33;101577.44;;;14.63;100.00
75740;BME280;64357;51.344;6.550;2023-10-09T00:07:02;101577.91;;;14.68;100.00
75740;BME280;64357;51.344;6.550;2023-10-09T00:09:35;101572.63;;;14.58;100.00
75740;BME280;64357;51.344;6.550;2023-10-09T00:12:19;101574.56;;;14.69;100.00
75740;BME280;64357;51.344;6.550;2023-10-09T00:14:49;101576.03;;;14.76;100.00
75740;BME280;64357;51.344;6.550;2023-10-09T00:17:20;101577.44;;;14.63;100.00
75740;BME280;64357;51.344;6.550;2023-10-09T00:19:56;101563.91;;;14.47;100.00
75740;BME280;64357;51.344;6.550;2023-10-09T00:22:25;101578.88;;;14.51;100.00
75740;BME280;64357;51.344;6.550;2023-10-09T00:24:57;101579.44;;;14.57;100.00
75740;BME280;64357;51.344;6.550;2023-10-09T00:27:39;101571.72;;;14.66;100.00
75740;BME280;64357;51.344;6.550;2023-10-09T00:30:16;101568.50;;;14.69;100.00
75740;BME280;64357;51.344;6.550;2023-10-09T00:32:43;101543.03;;;14.80;100.00
75740;BME280;64357;51.344;6.550;2023-10-09T00:35:17;101557.56;;;14.80;100.00
75740;BME280;64357;51.344;6.550;2023-10-09T00:38:11;101568.94;;;15.01;100.00
75740;BME280;64357;51.344;6.550;2023-10-09T00:40:40;101567.44;;;15.03;100.00
75740;BME280;64357;51.344;6.550;2023-10-09T00:43:27;101559.16;;;14.97;100.00
75740;BME280;64357;51.344;6.550;2023-10-09T00:45:53;101561.00;;;14.89;100.00
75740;BME280;64357;51.344;6.550;2023-10-09T00:48:19;101550.44;;;14.77;100.00
75740;BME280;64357;51.344;6.550;2023-10-09T00:50:56;101545.44;;;15.06;100.00
75740;BME280;64357;51.344;6.550;2023-10-09T00:53:25;101550.94;;;15.01;100.00
75740;BME280;64357;51.344;6.550;2023-10-09T00:56:01;101545.72;;;14.90;100.00
75740;BME280;64357;51.344;6.550;2023-10-09T00:58:47;101558.00;;;14.84;100.00
75740;BME280;64357;51.344;6.550;2023-10-09T01:01:22;101542.56;;;14.84;100.00
75740;BME280;64357;51.344;6.550;2023-10-09T01:03:53;101532.84;;;14.90;100.00
75740;BME280;64357;51.344;6.550;2023-10-09T01:06:18;101533.38;;;14.78;100.00
75740;BME280;64357;51.344;6.550;2023-10-09T01:08:46;101530.72;;;14.95;100.00
75740;BME280;64357;51.344;6.550;2023-10-09T01:11:41;101521.03;;;14.92;100.00
75740;BME280;64357;51.344;6.550;2023-10-09T01:14:25;101516.34;;;14.88;100.00
75740;BME280;64357;51.344;6.550;2023-10-09T01:16:50;101510.84;;;15.03;100.00
75740;BME280;64357;51.344;6.550;2023-10-09T01:19:19;101512.84;;;15.15;100.00
75740;BME280;64357;51.344;6.550;2023-10-09T01:21:52;101509.19;;;15.22;100.00
75740;BME280;64357;51.344;6.550;2023-10-09T01:24:18;101499.66;;;15.21;100.00
75740;BME280;64357;51.344;6.550;2023-10-09T01:26:52;101507.94;;;15.27;100.00
75740;BME280;64357;51.344;6.550;2023-10-09T01:29:20;101503.75;;;15.19;100.00
75740;BME280;64357;51.344;6.550;2023-10-09T01:31:54;101512.16;;;15.08;100.00
75740;BME280;64357;51.344;6.550;2023-10-09T01:34:38;101518.81;;;15.06;100.00
75740;BME280;64357;51.344;6.550;2023-10-09T01:37:20;101530.19;;;15.27;100.00
75740;BME280;64357;51.344;6.550;2023-10-09T01:39:58;101525.31;;;15.30;100.00
75740;BME280;64357;51.344;6.550;2023-10-09T01:42:24;101523.03;;;15.33;100.00
75740;BME280;64357;51.344;6.550;2023-10-09T01:45:00;101520.88;;;15.18;100.00
75740;BME280;64357;51.344;6.550;2023-10-09T01:47:41;101540.06;;;15.22;100.00
75740;BME280;64357;51.344;6.550;2023-10-09T01:50:11;101530.78;;;15.05;100.00
75740;BME280;64357;51.344;6.550;2023-10-09T01:52:45;101538.50;;;15.05;100.00
75740;BME280;64357;51.344;6.550;2023-10-09T01:55:10;101528.41;;;14.98;100.00
75740;BME280;64357;51.344;6.550;2023-10-09T01:57:55;101535.03;;;15.24;100.00
75740;BME280;64357;51.344;6.550;2023-10-09T02:00:23;101540.00;;;15.31;100.00
75740;BME280;64357;51.344;6.550;2023-10-09T08:45:14;101514.78;;;17.33;100.00
75740;BME280;64357;51.344;6.550;2023-10-09T08:47:44;101517.25;;;17.21;100.00
75740;BME280;64357;51.344;6.550;2023-10-09T08:50:10;101486.44;;;17.13;100.00
75740;BME280;64357;51.344;6.550;2023-10-09T08:52:41;101483.84;;;17.13;100.00
75740;BME280;64357;51.344;6.550;2023-10-09T08:55:06;101490.03;;;17.25;100.00
75740;BME280;64357;51.344;6.550;2023-10-09T08:57:32;101488.69;;;17.50;100.00
75740;BME280;64357;51.344;6.550;2023-10-09T08:59:58;101463.03;;;17.31;100.00
75740;BME280;64357;51.344;6.550;2023-10-09T09:02:24;101456.16;;;17.42;100.00
75740;BME280;64357;51.344;6.550;2023-10-09T09:04:49;101465.72;;;17.43;100.00
75740;BME280;64357;51.344;6.550;2023-10-09T09:07:26;101462.63;;;17.37;100.00
75740;BME280;64357;51.344;6.550;2023-10-09T09:09:57;101483.63;;;17.52;100.00
75740;BME280;64357;51.344;6.550;2023-10-09T09:12:29;101471.59;;;17.63;100.00
75740;BME280;64357;51.344;6.550;2023-10-09T09:15:03;101476.53;;;17.59;100.00
75740;BME280;64357;51.344;6.550;2023-10-09T09:17:32;101473.28;;;17.72;100.00
75740;BME280;64357;51.344;6.550;2023-10-09T09:19:58;101475.38;;;17.98;100.00
75740;BME280;64357;51.344;6.550;2023-10-09T09:22:23;101484.84;;;18.20;100.00
75740;BME280;64357;51.344;6.550;2023-10-09T09:24:58;101496.09;;;18.20;100.00
75740;BME280;64357;51.344;6.550;2023-10-09T09:27:47;101516.66;;;18.19;100.00
75740;BME280;64357;51.344;6.550;2023-10-09T09:30:28;101522.25;;;18.13;100.00
75740;BME280;64357;51.344;6.550;2023-10-09T09:33:24;101522.97;;;18.22;100.00
75740;BME280;64357;51.344;6.550;2023-10-09T09:35:56;101516.44;;;18.05;100.00
75740;BME280;64357;51.344;6.550;2023-10-09T09:38:24;101517.25;;;18.26;100.00
75740;BME280;64357;51.344;6.550;2023-10-09T09:40:51;101517.56;;;18.19;100.00
75740;BME280;64357;51.344;6.550;2023-10-09T09:43:20;101524.56;;;18.42;100.00
75740;BME280;64357;51.344;6.550;2023-10-09T09:45:48;101515.75;;;18.18;100.00
75740;BME280;64357;51.344;6.550;2023-10-09T09:48:43;101499.88;;;18.14;100.00
75740;BME280;64357;51.344;6.550;2023-10-09T09:51:12;101521.03;;;18.20;100.00
75740;BME280;64357;51.344;6.550;2023-10-09T09:53:42;101518.94;;;18.26;100.00
75740;BME280;64357;51.344;6.550;2023-10-09T09:56:25;101535.06;;;18.33;100.00
75740;BME280;64357;51.344;6.550;2023-10-09T09:59:01;101527.50;;;18.25;100.00
75740;BME280;64357;51.344;6.550;2023-10-09T10:01:43;101517.72;;;18.10;100.00
75740;BME280;64357;51.344;6.550;2023-10-09T10:04:32;101523.53;;;18.18;100.00
75740;BME280;64357;51.344;6.550;2023-10-09T10:07:01;101523.84;;;18.23;100.00
75740;BME280;64357;51.344;6.550;2023-10-09T10:09:38;101540.66;;;18.50;100.00
75740;BME280;64357;51.344;6.550;2023-10-09T10:12:08;101534.91;;;18.42;100.00
75740;BME280;64357;51.344;6.550;2023-10-09T10:14:54;101538.09;;;18.50;100.00
75740;BME280;64357;51.344;6.550;2023-10-09T10:20:26;101538.09;;;18.50;100.00
75740;BME280;64357;51.344;6.550;2023-10-09T10:23:14;101548.38;;;18.60;100.00
75740;BME280;64357;51.344;6.550;2023-10-09T10:25:43;101547.59;;;18.61;100.00
75740;BME280;64357;51.344;6.550;2023-10-09T10:28:22;101556.75;;;18.89;100.00
75740;BME280;64357;51.344;6.550;2023-10-09T10:31:01;101567.22;;;18.91;100.00
75740;BME280;64357;51.344;6.550;2023-10-09T10:36:32;101578.31;;;19.00;100.00
75740;BME280;64357;51.344;6.550;2023-10-09T10:39:26;101572.50;;;19.14;100.00
75740;BME280;64357;51.344;6.550;2023-10-09T10:42:09;101572.84;;;19.19;100.00
75740;BME280;64357;51.344;6.550;2023-10-09T10:44:56;101569.88;;;19.03;100.00
75740;BME280;64357;51.344;6.550;2023-10-09T10:47:29;101566.06;;;19.09;100.00
75740;BME280;64357;51.344;6.550;2023-10-09T10:50:07;101555.91;;;19.01;100.00
75740;BME280;64357;51.344;6.550;2023-10-09T10:53:00;101544.00;;;19.14;100.00
75740;BME280;64357;51.344;6.550;2023-10-09T10:55:59;101558.50;;;19.58;100.00
75740;BME280;64357;51.344;6.550;2023-10-09T10:58:53;101552.31;;;19.56;100.00
75740;BME280;64357;51.344;6.550;2023-10-09T11:01:38;101555.50;;;19.63;100.00
75740;BME280;64357;51.344;6.550;2023-10-09T11:04:23;101555.88;;;19.46;100.00
75740;BME280;64357;51.344;6.550;2023-10-09T11:07:03;101549.81;;;19.45;100.00
75740;BME280;64357;51.344;6.550;2023-10-09T11:09:54;101557.69;;;19.35;100.00
75740;BME280;64357;51.344;6.550;2023-10-09T11:12:47;101519.34;;;19.20;100.00
75740;BME280;64357;51.344;6.550;2023-10-09T11:15:36;101539.28;;;19.78;100.00
75740;BME280;64357;51.344;6.550;2023-10-09T11:18:38;101553.25;;;19.68;100.00
75740;BME280;64357;51.344;6.550;2023-10-09T11:21:09;101544.94;;;19.27;100.00
75740;BME280;64357;51.344;6.550;2023-10-09T11:23:35;101526.44;;;19.22;100.00
75740;BME280;64357;51.344;6.550;2023-10-09T11:26:03;101522.06;;;19.33;100.00
75740;BME280;64357;51.344;6.550;2023-10-09T11:32:07;101534.91;;;19.65;100.00
75740;BME280;64357;51.344;6.550;2023-10-09T11:34:51;101535.66;;;19.76;100.00
75740;BME280;64357;51.344;6.550;2023-10-09T11:37:35;101548.16;;;19.81;100.00
75740;BME280;64357;51.344;6.550;2023-10-09T11:40:26;101539.28;;;19.66;100.00
75740;BME280;64357;51.344;6.550;2023-10-09T11:42:55;101549.41;;;19.63;100.00
75740;BME280;64357;51.344;6.550;2023-10-09T11:45:27;101539.38;;;19.67;100.00
75740;BME280;64357;51.344;6.550;2023-10-09T11:48:16;101541.19;;;19.80;100.00
75740;BME280;64357;51.344;6.550;2023-10-09T11:50:47;101541.53;;;19.96;100.00
75740;BME280;64357;51.344;6.550;2023-10-09T11:53:17;101545.09;;;20.10;100.00
75740;BME280;64357;51.344;6.550;2023-10-09T11:56:00;101538.47;;;20.14;100.00
75740;BME280;64357;51.344;6.550;2023-10-09T11:58:38;101528.94;;;20.38;100.00
75740;BME280;64357;51.344;6.550;2023-10-09T12:01:12;101531.34;;;20.71;100.00
75740;BME280;64357;51.344;6.550;2023-10-09T12:03:50;101530.22;;;20.19;100.00
75740;BME280;64357;51.344;6.550;2023-10-09T12:06:22;101520.16;;;20.47;100.00
75740;BME280;64357;51.344;6.550;2023-10-09T12:08:51;101516.56;;;20.70;100.00
75740;BME280;64357;51.344;6.550;2023-10-09T12:11:16;101528.69;;;20.58;100.00
75740;BME280;64357;51.344;6.550;2023-10-09T12:13:48;101525.88;;;20.55;100.00
75740;BME280;64357;51.344;6.550;2023-10-09T12:16:14;101526.03;;;20.21;100.00
75740;BME280;64357;51.344;6.550;2023-10-09T12:18:41;101518.19;;;19.85;100.00
75740;BME280;64357;51.344;6.550;2023-10-09T12:21:09;101531.06;;;19.95;100.00
75740;BME280;64357;51.344;6.550;2023-10-09T12:23:41;101520.84;;;20.21;100.00
75740;BME280;64357;51.344;6.550;2023-10-09T12:26:09;101518.59;;;20.26;100.00
75740;BME280;64357;51.344;6.550;2023-10-09T12:28:42;101512.97;;;20.20;100.00
75740;BME280;64357;51.344;6.550;2023-10-09T12:31:16;101509.22;;;20.16;100.00
75740;BME280;64357;51.344;6.550;2023-10-09T12:33:49;101514.69;;;20.08;100.00
75740;BME280;64357;51.344;6.550;2023-10-09T12:36:16;101531.16;;;19.96;100.00
75740;BME280;64357;51.344;6.550;2023-10-09T12:38:48;101515.03;;;20.01;100.00
75740;BME280;64357;51.344;6.550;2023-10-09T12:41:19;101515.34;;;20.17;100.00
75740;BME280;64357;51.344;6.550;2023-10-09T12:43:45;101525.34;;;20.36;100.00
75740;BME280;64357;51.344;6.550;2023-10-09T12:46:11;101501.31;;;20.27;100.00
75740;BME280;64357;51.344;6.550;2023-10-09T12:48:42;101518.56;;;20.49;100.00
75740;BME280;64357;51.344;6.550;2023-10-09T12:51:11;101513.25;;;20.48;100.00
75740;BME280;64357;51.344;6.550;2023-10-09T12:53:41;101523.50;;;20.58;100.00
75740;BME280;64357;51.344;6.550;2023-10-09T12:56:06;101525.91;;;20.32;100.00
75740;BME280;64357;51.344;6.550;2023-10-09T12:58:34;101518.84;;;20.17;100.00
75740;BME280;64357;51.344;6.550;2023-10-09T13:01:11;101527.38;;;20.16;100.00
75740;BME280;64357;51.344;6.550;2023-10-09T13:03:38;101538.34;;;20.24;100.00
75740;BME280;64357;51.344;6.550;2023-10-09T13:06:04;101544.75;;;20.29;100.00
75740;BME280;64357;51.344;6.550;2023-10-09T13:08:53;101535.06;;;20.15;100.00
75740;BME280;64357;51.344;6.550;2023-10-09T13:11:27;101537.66;;;20.15;100.00
75740;BME280;64357;51.344;6.550;2023-10-09T13:13:53;101514.41;;;20.16;100.00
75740;BME280;64357;51.344;6.550;2023-10-09T13:16:29;101518.72;;;20.16;100.00
75740;BME280;64357;51.344;6.550;2023-10-09T13:18:56;101511.97;;;20.18;100.00
75740;BME280;64357;51.344;6.550;2023-10-09T13:21:27;101508.00;;;20.23;100.00
75740;BME280;64357;51.344;6.550;2023-10-09T13:23:57;101521.88;;;20.23;100.00
75740;BME280;64357;51.344;6.550;2023-10-09T13:26:28;101515.19;;;20.27;100.00
75740;BME280;64357;51.344;6.550;2023-10-09T13:28:57;101513.94;;;20.34;100.00
75740;BME280;64357;51.344;6.550;2023-10-09T13:31:24;101518.44;;;20.36;100.00
75740;BME280;64357;51.344;6.550;2023-10-09T13:33:57;101518.22;;;20.33;100.00
75740;BME280;64357;51.344;6.550;2023-10-09T13:36:25;101520.81;;;20.33;100.00
75740;BME280;64357;51.344;6.550;2023-10-09T13:38:58;101510.44;;;20.33;100.00
75740;BME280;64357;51.344;6.550;2023-10-09T13:41:27;101513.31;;;20.13;100.00
75740;BME280;64357;51.344;6.550;2023-10-09T13:43:55;101504.00;;;20.28;100.00
75740;BME280;64357;51.344;6.550;2023-10-09T13:46:22;101516.06;;;20.51;100.00
75740;BME280;64357;51.344;6.550;2023-10-09T13:48:50;101509.44;;;20.31;100.00
75740;BME280;64357;51.344;6.550;2023-10-09T13:51:18;101516.13;;;20.16;100.00
75740;BME280;64357;51.344;6.550;2023-10-09T13:53:44;101515.53;;;20.32;100.00
75740;BME280;64357;51.344;6.550;2023-10-09T13:56:19;101512.78;;;20.42;100.00
75740;BME280;64357;51.344;6.550;2023-10-09T14:01:11;101514.16;;;20.48;100.00
75740;BME280;64357;51.344;6.550;2023-10-09T14:03:36;101517.56;;;20.36;100.00
75740;BME280;64357;51.344;6.550;2023-10-09T14:06:04;101521.63;;;20.20;100.00
75740;BME280;64357;51.344;6.550;2023-10-09T14:08:39;101512.09;;;20.44;100.00
75740;BME280;64357;51.344;6.550;2023-10-09T14:11:09;101502.19;;;20.50;100.00
75740;BME280;64357;51.344;6.550;2023-10-09T14:13:42;101513.13;;;20.58;100.00
75740;BME280;64357;51.344;6.550;2023-10-09T14:16:08;101515.28;;;20.52;100.00
75740;BME280;64357;51.344;6.550;2023-10-09T14:18:51;101507.59;;;20.42;100.00
75740;BME280;64357;51.344;6.550;2023-10-09T14:21:26;101511.19;;;20.44;100.00
75740;BME280;64357;51.344;6.550;2023-10-09T14:23:55;101511.94;;;20.30;100.00
75740;BME280;64357;51.344;6.550;2023-10-09T14:26:27;101509.56;;;20.21;100.00
75740;BME280;64357;51.344;6.550;2023-10-09T14:28:53;101513.97;;;20.22;100.00
75740;BME280;64357;51.344;6.550;2023-10-09T14:31:25;101504.19;;;20.18;100.00
75740;BME280;64357;51.344;6.550;2023-10-09T14:33:59;101498.19;;;20.19;100.00
75740;BME280;64357;51.344;6.550;2023-10-09T14:36:27;101503.53;;;20.34;100.00
75740;BME280;64357;51.344;6.550;2023-10-09T14:39:01;101497.41;;;20.45;100.00
75740;BME280;64357;51.344;6.550;2023-10-09T14:41:29;101507.38;;;20.39;100.00
75740;BME280;64357;51.344;6.550;2023-10-09T14:43:58;101481.22;;;20.36;100.00
75740;BME280;64357;51.344;6.550;2023-10-09T14:46:24;101502.19;;;20.50;100.00
75740;BME280;64357;51.344;6.550;2023-10-09T14:48:54;101515.84;;;20.48;100.00
75740;BME280;64357;51.344;6.550;2023-10-09T14:51:23;101496.31;;;20.53;100.00
75740;BME280;64357;51.344;6.550;2023-10-09T14:53:58;101495.03;;;20.60;100.00
75740;BME280;64357;51.344;6.550;2023-10-09T14:56:29;101501.97;;;20.47;100.00
75740;BME280;64357;51.344;6.550;2023-10-09T14:58:58;101503.97;;;20.52;100.00
75740;BME280;64357;51.344;6.550;2023-10-09T15:01:30;101505.66;;;20.51;100.00
75740;BME280;64357;51.344;6.550;2023-10-09T15:03:59;101497.22;;;20.54;100.00
75740;BME280;64357;51.344;6.550;2023-10-09T15:06:26;101489.81;;;20.46;100.00
75740;BME280;64357;51.344;6.550;2023-10-09T15:08:53;101499.38;;;20.47;100.00
75740;BME280;64357;51.344;6.550;2023-10-09T15:11:25;101512.00;;;20.55;100.00
75740;BME280;64357;51.344;6.550;2023-10-09T15:13:55;101507.75;;;20.68;100.00
75740;BME280;64357;51.344;6.550;2023-10-09T15:16:23;101498.31;;;20.57;100.00
75740;BME280;64357;51.344;6.550;2023-10-09T15:18:52;101504.16;;;20.66;100.00
75740;BME280;64357;51.344;6.550;2023-10-09T15:21:21;101513.88;;;20.57;100.00
75740;BME280;64357;51.344;6.550;2023-10-09T15:23:50;101505.91;;;20.54;100.00
75740;BME280;64357;51.344;6.550;2023-10-09T15:26:19;101502.13;;;20.62;100.00
75740;BME280;64357;51.344;6.550;2023-10-09T15:28:48;101492.03;;;20.54;100.00
75740;BME280;64357;51.344;6.550;2023-10-09T15:31:14;101495.84;;;20.59;100.00
75740;BME280;64357;51.344;6.550;2023-10-09T15:33:43;101507.97;;;20.71;100.00
75740;BME280;64357;51.344;6.550;2023-10-09T15:36:17;101518.84;;;20.66;100.00
75740;BME280;64357;51.344;6.550;2023-10-09T15:38:43;101510.00;;;20.75;100.00
75740;BME280;64357;51.344;6.550;2023-10-09T15:41:11;101507.31;;;20.62;100.00
75740;BME280;64357;51.344;6.550;2023-10-09T15:43:40;101508.97;;;20.73;100.00
75740;BME280;64357;51.344;6.550;2023-10-09T15:46:11;101515.72;;;20.58;100.00
75740;BME280;64357;51.344;6.550;2023-10-09T15:48:37;101506.38;;;20.37;100.00
75740;BME280;64357;51.344;6.550;2023-10-09T15:51:09;101511.94;;;20.30;100.00
75740;BME280;64357;51.344;6.550;2023-10-09T15:53:52;101517.69;;;20.26;100.00
75740;BME280;64357;51.344;6.550;2023-10-09T15:56:21;101520.19;;;20.24;100.00
75740;BME280;64357;51.344;6.550;2023-10-09T15:58:47;101511.28;;;20.09;100.00
75740;BME280;64357;51.344;6.550;2023-10-09T16:01:13;101518.72;;;20.04;100.00
75740;BME280;64357;51.344;6.550;2023-10-09T16:03:42;101514.00;;;19.98;100.00
75740;BME280;64357;51.344;6.550;2023-10-09T16:06:09;101506.56;;;19.91;100.00
75740;BME280;64357;51.344;6.550;2023-10-09T16:08:36;101504.09;;;19.81;100.00
75740;BME280;64357;51.344;6.550;2023-10-09T16:11:03;101511.31;;;19.85;100.00
75740;BME280;64357;51.344;6.550;2023-10-09T16:13:31;101519.09;;;19.74;100.00
75740;BME280;64357;51.344;6.550;2023-10-09T16:15:58;101518.75;;;19.69;100.00
75740;BME280;64357;51.344;6.550;2023-10-09T16:18:25;101510.06;;;19.68;100.00
75740;BME280;64357;51.344;6.550;2023-10-09T16:20:54;101527.44;;;19.69;100.00
75740;BME280;64357;51.344;6.550;2023-10-09T16:23:20;101517.72;;;19.55;100.00
75740;BME280;64357;51.344;6.550;2023-10-09T16:25:46;101521.91;;;19.53;100.00
75740;BME280;64357;51.344;6.550;2023-10-09T16:28:13;101508.94;;;19.41;100.00
75740;BME280;64357;51.344;6.550;2023-10-09T16:30:42;101522.19;;;19.46;100.00
75740;BME280;64357;51.344;6.550;2023-10-09T16:33:08;101526.47;;;19.45;100.00
75740;BME280;64357;51.344;6.550;2023-10-09T16:35:34;101535.72;;;19.42;100.00
75740;BME280;64357;51.344;6.550;2023-10-09T16:38:03;101537.88;;;19.36;100.00
75740;BME280;64357;51.344;6.550;2023-10-09T16:40:33;101529.38;;;19.27;100.00
75740;BME280;64357;51.344;6.550;2023-10-09T16:43:01;101536.50;;;19.29;100.00
75740;BME280;64357;51.344;6.550;2023-10-09T16:45:27;101525.69;;;19.23;100.00
75740;BME280;64357;51.344;6.550;2023-10-09T16:47:52;101536.59;;;19.19;100.00
75740;BME280;64357;51.344;6.550;2023-10-09T16:50:24;101534.13;;;19.32;100.00
75740;BME280;64357;51.344;6.550;2023-10-09T16:52:53;101538.00;;;19.49;100.00
75740;BME280;64357;51.344;6.550;2023-10-09T16:55:21;101532.34;;;19.43;100.00
75740;BME280;64357;51.344;6.550;2023-10-09T16:57:49;101545.63;;;19.36;100.00
75740;BME280;64357;51.344;6.550;2023-10-09T17:00:17;101550.34;;;19.18;100.00
75740;BME280;64357;51.344;6.550;2023-10-09T17:03:02;101549.88;;;19.12;100.00
75740;BME280;64357;51.344;6.550;2023-10-09T17:05:34;101550.75;;;19.12;100.00
75740;BME280;64357;51.344;6.550;2023-10-09T17:08:06;101561.22;;;19.14;100.00
75740;BME280;64357;51.344;6.550;2023-10-09T17:10:35;101554.78;;;19.09;100.00
75740;BME280;64357;51.344;6.550;2023-10-09T17:13:02;101563.00;;;19.03;100.00
75740;BME280;64357;51.344;6.550;2023-10-09T17:15:33;101559.03;;;18.97;100.00
75740;BME280;64357;51.344;6.550;2023-10-09T17:17:59;101558.94;;;18.95;100.00
75740;BME280;64357;51.344;6.550;2023-10-09T17:20:26;101560.47;;;18.93;100.00
75740;BME280;64357;51.344;6.550;2023-10-09T17:22:52;101556.97;;;18.92;100.00
75740;BME280;64357;51.344;6.550;2023-10-09T17:25:17;101557.19;;;18.84;100.00
75740;BME280;64357;51.344;6.550;2023-10-09T17:27:43;101567.13;;;18.89;100.00
75740;BME280;64357;51.344;6.550;2023-10-09T17:30:10;101563.16;;;18.83;100.00
75740;BME280;64357;51.344;6.550;2023-10-09T17:32:36;101557.72;;;18.80;100.00
75740;BME280;64357;51.344;6.550;2023-10-09T17:37:37;101562.06;;;18.69;100.00
75740;BME280;64357;51.344;6.550;2023-10-09T17:40:05;101557.56;;;18.56;100.00
75740;BME280;64357;51.344;6.550;2023-10-09T17:42:32;101556.72;;;18.46;100.00
75740;BME280;64357;51.344;6.550;2023-10-09T17:44:58;101565.88;;;18.52;100.00
75740;BME280;64357;51.344;6.550;2023-10-09T17:47:24;101575.88;;;18.48;100.00
75740;BME280;64357;51.344;6.550;2023-10-09T17:49:49;101580.00;;;18.46;100.00
75740;BME280;64357;51.344;6.550;2023-10-09T17:52:14;101589.09;;;18.41;100.00
75740;BME280;64357;51.344;6.550;2023-10-09T17:54:40;101591.47;;;18.27;100.00
75740;BME280;64357;51.344;6.550;2023-10-09T17:57:05;101589.69;;;18.26;100.00
75740;BME280;64357;51.344;6.550;2023-10-09T17:59:30;101591.09;;;18.23;100.00
75740;BME280;64357;51.344;6.550;2023-10-09T18:02:01;101587.38;;;18.19;100.00
75740;BME280;64357;51.344;6.550;2023-10-09T18:04:27;101584.13;;;18.22;100.00
75740;BME280;64357;51.344;6.550;2023-10-09T18:07:03;101588.19;;;18.08;100.00
75740;BME280;64357;51.344;6.550;2023-10-09T18:09:30;101600.22;;;18.07;100.00
75740;BME280;64357;51.344;6.550;2023-10-09T18:11:58;101603.81;;;18.09;100.00
75740;BME280;64357;51.344;6.550;2023-10-09T18:14:26;101600.84;;;18.05;100.00
75740;BME280;64357;51.344;6.550;2023-10-09T18:16:55;101609.16;;;18.01;100.00
75740;BME280;64357;51.344;6.550;2023-10-09T18:19:23;101623.88;;;18.12;100.00
75740;BME280;64357;51.344;6.550;2023-10-09T18:21:48;101610.69;;;18.09;100.00
75740;BME280;64357;51.344;6.550;2023-10-09T18:24:18;101613.25;;;18.09;100.00
75740;BME280;64357;51.344;6.550;2023-10-09T18:26:44;101609.00;;;18.09;100.00
75740;BME280;64357;51.344;6.550;2023-10-09T18:29:10;101623.22;;;18.15;100.00
75740;BME280;64357;51.344;6.550;2023-10-09T18:31:39;101618.81;;;18.14;100.00
75740;BME280;64357;51.344;6.550;2023-10-09T18:34:10;101612.38;;;18.08;100.00
75740;BME280;64357;51.344;6.550;2023-10-09T18:36:36;101614.56;;;18.04;100.00
75740;BME280;64357;51.344;6.550;2023-10-09T18:39:07;101614.34;;;17.91;100.00
75740;BME280;64357;51.344;6.550;2023-10-09T18:41:35;101616.16;;;17.92;100.00
75740;BME280;64357;51.344;6.550;2023-10-09T18:44:01;101611.00;;;17.81;100.00
75740;BME280;64357;51.344;6.550;2023-10-09T18:46:29;101609.97;;;17.79;100.00
75740;BME280;64357;51.344;6.550;2023-10-09T18:48:55;101609.34;;;17.72;100.00
75740;BME280;64357;51.344;6.550;2023-10-09T18:51:26;101611.16;;;17.83;100.00
75740;BME280;64357;51.344;6.550;2023-10-09T18:53:56;101618.75;;;17.71;100.00
75740;BME280;64357;51.344;6.550;2023-10-09T18:56:34;101601.81;;;17.65;100.00
75740;BME280;64357;51.344;6.550;2023-10-09T18:59:03;101574.59;;;17.38;100.00
75740;BME280;64357;51.344;6.550;2023-10-09T19:01:59;101569.81;;;17.32;100.00
75740;BME280;64357;51.344;6.550;2023-10-09T19:04:55;101590.47;;;17.32;100.00
75740;BME280;64357;51.344;6.550;2023-10-09T19:07:34;101613.97;;;17.35;100.00
75740;BME280;64357;51.344;6.550;2023-10-09T19:10:34;101568.50;;;17.17;100.00
75740;BME280;64357;51.344;6.550;2023-10-09T19:13:13;101571.88;;;17.16;100.00
75740;BME280;64357;51.344;6.550;2023-10-09T19:15:55;101573.31;;;17.12;100.00
75740;BME280;64357;51.344;6.550;2023-10-09T19:18:26;101584.25;;;17.10;100.00
75740;BME280;64357;51.344;6.550;2023-10-09T19:21:10;101574.97;;;17.01;100.00
75740;BME280;64357;51.344;6.550;2023-10-09T19:23:40;101567.72;;;16.87;100.00
75740;BME280;64357;51.344;6.550;2023-10-09T19:26:15;101598.97;;;17.11;100.00
75740;BME280;64357;51.344;6.550;2023-10-09T19:28:43;101576.50;;;16.89;100.00
75740;BME280;64357;51.344;6.550;2023-10-09T19:31:18;101576.19;;;16.76;100.00
75740;BME280;64357;51.344;6.550;2023-10-09T19:33:47;101575.72;;;16.80;100.00
75740;BME280;64357;51.344;6.550;2023-10-09T19:36:29;101582.66;;;16.81;100.00
75740;BME280;64357;51.344;6.550;2023-10-09T19:39:20;101598.44;;;16.84;100.00
75740;BME280;64357;51.344;6.550;2023-10-09T19:41:51;101596.63;;;16.83;100.00
75740;BME280;64357;51.344;6.550;2023-10-09T19:44:23;101578.66;;;16.74;100.00
75740;BME280;64357;51.344;6.550;2023-10-09T19:46:54;101582.47;;;16.69;100.00
75740;BME280;64357;51.344;6.550;2023-10-09T19:49:27;101609.53;;;16.83;100.00
75740;BME280;64357;51.344;6.550;2023-10-09T19:51:54;101583.13;;;16.67;100.00
75740;BME280;64357;51.344;6.550;2023-10-09T19:54:36;101612.84;;;16.82;100.00
75740;BME280;64357;51.344;6.550;2023-10-09T19:57:04;101589.06;;;16.66;100.00
75740;BME280;64357;51.344;6.550;2023-10-09T20:00:10;101582.47;;;16.69;100.00
75740;BME280;64357;51.344;6.550;2023-10-09T20:03:12;101625.13;;;16.85;100.00
75740;BME280;64357;51.344;6.550;2023-10-09T20:05:43;101585.59;;;16.65;100.00